Time;durP1;ratioP1;P1;durP2;ratioP2;P2;SDS_P1;SDS_P2;PMS_P1;PMS_P2;Temp;Humidity;BMP_temperature;BMP_pressure;BME280_temperature;BME280_humidity;BME280_pressure;Samples;Min_cycle;Max_cycle;Signal;HPM_P1;HPM_P2
2023/06/17 00:02:18;;;;;;;17.85;13.43;;;16.70;99.90;;;;;;4985842;28;20041;-55
2023/06/17 00:04:43;;;;;;;16.55;11.93;;;16.70;99.90;;;;;;5007171;28;20045;-54
2023/06/17 00:07:10;;;;;;;19.17;12.05;;;16.70;99.90;;;;;;5013184;28;20037;-55
2023/06/17 00:09:36;;;;;;;18.95;12.35;;;16.70;99.90;;;;;;4990537;28;20412;-55
2023/06/17 00:12:02;;;;;;;21.05;11.98;;;16.70;99.90;;;;;;5009227;28;20517;-52
2023/06/17 00:14:28;;;;;;;20.58;12.98;;;16.70;99.90;;;;;;5007360;28;20046;-56
2023/06/17 00:16:54;;;;;;;19.80;11.80;;;16.70;99.90;;;;;;5013479;28;20528;-54
2023/06/17 00:19:20;;;;;;;17.25;12.18;;;16.70;99.90;;;;;;5000259;28;20610;-54
2023/06/17 00:21:49;;;;;;;19.58;14.13;;;16.70;99.90;;;;;;5004104;28;20048;-55
2023/06/17 00:24:19;;;;;;;21.15;13.93;;;16.70;99.90;;;;;;5011156;28;20046;-54
2023/06/17 00:26:45;;;;;;;18.45;13.02;;;16.70;99.90;;;;;;4997238;28;20139;-54
2023/06/17 00:29:12;;;;;;;18.77;12.02;;;16.70;99.90;;;;;;5009339;28;20080;-54
2023/06/17 00:31:37;;;;;;;24.08;15.45;;;16.70;99.90;;;;;;5003156;28;20568;-55
2023/06/17 00:34:03;;;;;;;23.77;16.38;;;16.70;99.90;;;;;;4996970;28;20047;-56
2023/06/17 00:36:29;;;;;;;22.83;13.77;;;16.70;99.90;;;;;;5003942;28;20155;-55
2023/06/17 00:38:55;;;;;;;23.83;14.57;;;16.70;99.90;;;;;;5000730;28;20410;-54
2023/06/17 00:41:21;;;;;;;18.45;13.07;;;16.60;99.90;;;;;;5003271;28;20079;-54
2023/06/17 00:43:47;;;;;;;25.77;15.45;;;16.60;99.90;;;;;;5001889;28;20061;-55
2023/06/17 00:46:36;;;;;;;19.63;12.70;;;16.60;99.90;;;;;;5005322;28;20589;-55
2023/06/17 00:49:04;;;;;;;22.15;16.42;;;16.70;99.90;;;;;;4984788;28;20432;-55
2023/06/17 00:51:33;;;;;;;23.38;15.20;;;16.60;99.90;;;;;;5000089;28;20034;-55
2023/06/17 00:54:02;;;;;;;23.52;15.00;;;16.60;99.90;;;;;;4984851;28;20111;-56
2023/06/17 00:56:31;;;;;;;22.25;12.77;;;16.60;99.90;;;;;;5004087;28;20048;-55
2023/06/17 00:58:57;;;;;;;21.98;15.48;;;16.60;99.90;;;;;;5007914;28;20033;-56
2023/06/17 01:01:24;;;;;;;19.92;13.02;;;16.60;99.90;;;;;;5005778;28;20096;-54
2023/06/17 01:03:52;;;;;;;18.40;14.25;;;16.60;99.90;;;;;;5007348;28;20670;-55
2023/06/17 01:06:28;;;;;;;26.70;16.02;;;16.60;99.90;;;;;;5001998;28;20073;-54
2023/06/17 01:09:05;;;;;;;18.48;13.60;;;16.60;99.90;;;;;;5002826;28;20131;-53
2023/06/17 01:11:32;;;;;;;21.55;14.10;;;16.60;99.90;;;;;;5005216;28;20100;-53
2023/06/17 01:13:58;;;;;;;19.92;13.43;;;16.50;99.90;;;;;;4989360;28;20053;-56
2023/06/17 01:16:31;;;;;;;21.83;12.45;;;16.50;99.90;;;;;;5008680;28;20424;-55
2023/06/17 01:18:58;;;;;;;25.17;14.35;;;16.50;99.90;;;;;;5003151;28;20076;-56
2023/06/17 01:21:28;;;;;;;20.73;12.75;;;16.50;99.90;;;;;;4988782;28;20041;-55
2023/06/17 01:23:58;;;;;;;16.52;12.27;;;16.40;99.90;;;;;;4979846;28;20472;-56
2023/06/17 01:26:24;;;;;;;22.77;14.38;;;16.50;99.90;;;;;;5006548;28;20053;-56
2023/06/17 01:28:50;;;;;;;23.23;14.00;;;16.50;99.90;;;;;;5005367;28;20050;-56
2023/06/17 01:31:19;;;;;;;20.30;13.02;;;16.50;99.90;;;;;;5000884;28;20712;-55
2023/06/17 01:33:50;;;;;;;21.63;13.63;;;16.50;99.90;;;;;;5000680;28;20048;-55
2023/06/17 01:36:26;;;;;;;22.83;15.65;;;16.50;99.90;;;;;;4981685;28;20516;-56
2023/06/17 01:38:59;;;;;;;17.90;13.80;;;16.40;99.90;;;;;;4997317;28;20099;-56
2023/06/17 01:41:32;;;;;;;23.15;13.20;;;16.40;99.90;;;;;;4996511;28;20049;-55
2023/06/17 01:43:59;;;;;;;26.48;15.55;;;16.40;99.90;;;;;;4998346;28;21784;-56
2023/06/17 01:46:25;;;;;;;25.20;14.30;;;16.40;99.90;;;;;;4990146;28;20111;-55
2023/06/17 01:48:55;;;;;;;26.33;14.52;;;16.40;99.90;;;;;;4998533;28;20053;-55
2023/06/17 01:51:21;;;;;;;26.50;14.35;;;16.40;99.90;;;;;;4988157;28;20045;-55
2023/06/17 01:53:47;;;;;;;21.92;12.88;;;16.40;99.90;;;;;;5001469;28;20045;-55
2023/06/17 01:56:13;;;;;;;26.85;14.60;;;16.40;99.90;;;;;;4999871;28;20103;-57
2023/06/17 01:58:39;;;;;;;17.23;11.88;;;16.40;99.90;;;;;;4982404;28;20540;-56
2023/06/17 02:01:05;;;;;;;25.98;14.82;;;16.40;99.90;;;;;;4997005;28;20037;-56
2023/06/17 02:03:32;;;;;;;20.17;13.02;;;16.40;99.90;;;;;;4998685;28;20045;-56
2023/06/17 02:05:58;;;;;;;26.58;15.18;;;16.40;99.90;;;;;;4994128;28;20371;-55
2023/06/17 02:08:24;;;;;;;22.40;14.65;;;16.40;99.90;;;;;;4997068;28;20115;-56
2023/06/17 02:10:49;;;;;;;24.90;15.15;;;16.40;99.90;;;;;;5003361;28;20037;-56
2023/06/17 02:13:15;;;;;;;25.90;13.82;;;16.30;99.90;;;;;;4999783;28;20045;-56
2023/06/17 02:15:42;;;;;;;24.08;16.45;;;16.40;99.90;;;;;;5001532;28;20497;-56
2023/06/17 02:18:12;;;;;;;26.60;15.63;;;16.50;99.90;;;;;;5001219;28;20164;-55
2023/06/17 02:20:38;;;;;;;21.65;15.75;;;16.40;99.90;;;;;;4981803;28;20044;-55
2023/06/17 02:23:04;;;;;;;25.33;15.73;;;16.50;99.90;;;;;;5004410;28;20045;-55
2023/06/17 02:25:30;;;;;;;26.88;16.67;;;16.50;99.90;;;;;;5002465;28;20065;-54
2023/06/17 02:27:56;;;;;;;25.58;15.73;;;16.50;99.90;;;;;;5001818;28;20072;-57
2023/06/17 02:30:21;;;;;;;28.35;15.60;;;16.40;99.90;;;;;;5006171;28;20139;-55
2023/06/17 02:32:47;;;;;;;28.05;15.55;;;16.40;99.90;;;;;;5002945;28;20092;-55
2023/06/17 02:35:13;;;;;;;22.70;14.98;;;16.40;99.90;;;;;;4990382;28;20577;-55
2023/06/17 02:37:40;;;;;;;19.42;14.00;;;16.30;99.90;;;;;;5000100;28;20041;-54
2023/06/17 02:40:08;;;;;;;26.13;15.70;;;16.40;99.90;;;;;;4981070;28;20053;-56
2023/06/17 02:42:35;;;;;;;19.52;14.40;;;16.40;99.90;;;;;;5002589;28;20453;-56
2023/06/17 02:45:02;;;;;;;25.92;15.10;;;16.40;99.90;;;;;;4989544;28;20124;-56
2023/06/17 02:47:28;;;;;;;24.58;15.05;;;16.40;99.90;;;;;;4999804;28;20065;-55
2023/06/17 02:49:54;;;;;;;29.52;18.85;;;16.40;99.90;;;;;;4993387;28;20065;-56
2023/06/17 02:52:21;;;;;;;26.13;17.25;;;16.40;99.90;;;;;;4991323;28;20967;-55
2023/06/17 02:54:46;;;;;;;30.15;17.33;;;16.30;99.90;;;;;;4997122;28;20405;-55
2023/06/17 02:57:12;;;;;;;20.95;13.95;;;16.40;99.90;;;;;;4997522;28;25972;-56
2023/06/17 02:59:38;;;;;;;22.60;15.23;;;16.40;99.90;;;;;;4982794;28;20053;-54
2023/06/17 03:02:04;;;;;;;27.55;17.10;;;16.30;99.90;;;;;;5002582;28;24172;-54
2023/06/17 03:04:34;;;;;;;25.58;18.23;;;16.30;99.90;;;;;;4998240;28;20136;-56
2023/06/17 03:07:04;;;;;;;28.52;19.63;;;16.30;99.90;;;;;;4991202;28;20042;-55
2023/06/17 03:09:30;;;;;;;30.25;20.60;;;16.30;99.90;;;;;;4998769;28;20049;-56
2023/06/17 03:11:56;;;;;;;30.13;22.05;;;16.20;99.90;;;;;;5002845;28;20114;-55
2023/06/17 03:14:22;;;;;;;31.63;21.05;;;16.30;99.90;;;;;;4994958;28;22201;-53
2023/06/17 03:16:47;;;;;;;31.13;19.83;;;16.20;99.90;;;;;;4998782;28;20228;-54
2023/06/17 03:19:16;;;;;;;27.73;20.73;;;16.20;99.90;;;;;;4999042;28;20796;-53
2023/06/17 03:21:43;;;;;;;31.92;21.08;;;16.20;99.90;;;;;;4988705;28;20512;-55
2023/06/17 03:24:09;;;;;;;35.40;21.70;;;16.20;99.90;;;;;;4997600;28;20675;-56
2023/06/17 03:26:35;;;;;;;26.48;17.77;;;16.20;99.90;;;;;;4982321;28;20398;-56
2023/06/17 03:29:03;;;;;;;30.02;20.52;;;16.20;99.90;;;;;;4998672;28;20208;-55
2023/06/17 03:31:29;;;;;;;31.08;20.30;;;16.20;99.90;;;;;;5000275;28;20627;-54
2023/06/17 03:33:55;;;;;;;28.77;18.55;;;16.30;99.90;;;;;;4982920;28;20038;-55
2023/06/17 03:36:24;;;;;;;25.52;16.88;;;16.20;99.90;;;;;;4995377;28;20041;-55
2023/06/17 03:38:50;;;;;;;26.33;17.23;;;16.20;99.90;;;;;;4979833;28;20135;-56
2023/06/17 03:41:16;;;;;;;24.80;16.52;;;16.10;99.90;;;;;;4998520;28;20120;-54
2023/06/17 03:43:43;;;;;;;24.75;15.82;;;16.10;99.90;;;;;;4984622;28;26295;-56
2023/06/17 03:46:09;;;;;;;23.83;15.48;;;16.00;99.90;;;;;;4960185;28;20521;-54
2023/06/17 03:48:35;;;;;;;28.77;16.88;;;16.00;99.90;;;;;;4987555;28;20559;-56
2023/06/17 03:51:02;;;;;;;24.75;17.35;;;16.00;99.90;;;;;;4999154;28;20100;-55
2023/06/17 03:53:28;;;;;;;24.02;16.27;;;16.00;99.90;;;;;;4999663;28;20063;-56
2023/06/17 03:55:54;;;;;;;26.02;17.40;;;16.00;99.90;;;;;;5000161;28;20144;-56
2023/06/17 03:58:20;;;;;;;23.92;16.85;;;16.00;99.90;;;;;;4984582;28;20099;-55
2023/06/17 04:00:48;;;;;;;28.38;16.98;;;16.00;99.90;;;;;;4997930;28;20050;-57
2023/06/17 04:03:15;;;;;;;25.20;16.67;;;16.00;99.90;;;;;;4979714;28;20056;-56
2023/06/17 04:05:42;;;;;;;19.58;14.10;;;16.00;99.90;;;;;;5000695;28;20041;-56
2023/06/17 04:08:08;;;;;;;21.80;14.20;;;16.00;99.90;;;;;;4982285;28;20057;-56
2023/06/17 04:10:34;;;;;;;25.52;17.05;;;16.00;99.90;;;;;;4981036;28;20050;-55
2023/06/17 04:13:00;;;;;;;25.52;16.70;;;16.10;99.90;;;;;;4982815;28;20091;-54
2023/06/17 04:15:26;;;;;;;27.40;17.48;;;16.10;99.90;;;;;;4998136;28;20136;-54
2023/06/17 04:17:52;;;;;;;24.58;14.85;;;16.10;99.90;;;;;;4978398;28;20057;-55
2023/06/17 04:20:17;;;;;;;18.35;13.32;;;16.10;99.90;;;;;;5000357;28;20381;-56
2023/06/17 04:22:43;;;;;;;22.20;15.30;;;16.10;99.90;;;;;;4998314;28;20025;-56
2023/06/17 04:25:10;;;;;;;24.50;16.42;;;16.20;99.90;;;;;;4997225;28;20072;-54
2023/06/17 04:27:36;;;;;;;21.77;15.15;;;16.20;99.90;;;;;;4996478;28;20422;-56
2023/06/17 04:30:03;;;;;;;22.25;15.23;;;16.20;99.90;;;;;;4998359;28;20041;-56
2023/06/17 04:32:29;;;;;;;26.42;16.58;;;16.20;99.90;;;;;;4980629;28;20088;-56
2023/06/17 04:34:56;;;;;;;23.83;16.50;;;16.20;99.90;;;;;;5004057;28;20038;-55
2023/06/17 04:37:22;;;;;;;25.80;15.98;;;16.30;99.90;;;;;;5004458;28;20096;-54
2023/06/17 04:39:48;;;;;;;20.10;14.20;;;16.20;99.90;;;;;;4998022;28;20038;-54
2023/06/17 04:42:14;;;;;;;28.80;17.05;;;16.20;99.90;;;;;;5001075;28;20050;-56
2023/06/17 04:44:40;;;;;;;25.50;16.25;;;16.30;99.90;;;;;;4994114;28;20107;-55
2023/06/17 04:47:08;;;;;;;24.40;16.70;;;16.30;99.90;;;;;;4995693;28;20041;-55
2023/06/17 04:49:41;;;;;;;20.70;14.57;;;16.30;99.90;;;;;;4984925;28;20045;-55
2023/06/17 04:52:08;;;;;;;20.25;15.20;;;16.30;99.90;;;;;;4996488;28;20863;-55
2023/06/17 04:54:34;;;;;;;24.80;15.77;;;16.30;99.90;;;;;;4985172;28;20050;-54
2023/06/17 04:57:01;;;;;;;22.27;16.45;;;16.30;99.90;;;;;;4981558;28;20033;-54
2023/06/17 04:59:27;;;;;;;35.05;19.65;;;16.30;99.90;;;;;;4996470;28;20449;-55
2023/06/17 05:01:52;;;;;;;29.65;19.30;;;16.30;99.90;;;;;;4983204;28;20042;-56
2023/06/17 05:04:18;;;;;;;29.02;19.08;;;16.30;99.90;;;;;;4996607;28;20112;-55
2023/06/17 05:06:45;;;;;;;34.60;20.38;;;16.30;99.90;;;;;;4996087;28;20142;-56
2023/06/17 05:09:10;;;;;;;31.73;19.85;;;16.30;99.90;;;;;;4994311;28;20298;-56
2023/06/17 05:11:38;;;;;;;33.28;22.35;;;16.30;99.90;;;;;;4997551;28;20390;-55
2023/06/17 05:14:04;;;;;;;25.75;18.92;;;16.30;99.90;;;;;;5001176;28;20115;-54
2023/06/17 05:16:30;;;;;;;31.98;20.25;;;16.30;99.90;;;;;;5004897;28;21492;-54
2023/06/17 05:18:56;;;;;;;27.00;19.52;;;16.40;99.90;;;;;;4996119;28;20088;-55
2023/06/17 05:21:22;;;;;;;32.53;20.83;;;16.30;99.90;;;;;;4983770;28;20042;-54
2023/06/17 05:23:49;;;;;;;27.48;18.67;;;16.30;99.90;;;;;;4983993;28;21105;-55
2023/06/17 05:26:14;;;;;;;29.63;17.38;;;16.30;99.90;;;;;;5000678;28;20201;-56
2023/06/17 05:28:40;;;;;;;27.17;18.15;;;16.30;99.90;;;;;;5000600;28;20053;-56
2023/06/17 05:31:06;;;;;;;26.88;17.40;;;16.30;99.90;;;;;;4969479;28;20100;-56
2023/06/17 05:33:31;;;;;;;30.00;17.98;;;16.30;99.90;;;;;;4999332;28;20504;-56
2023/06/17 05:36:00;;;;;;;25.00;17.02;;;16.30;99.90;;;;;;4997334;28;20673;-56
2023/06/17 05:38:26;;;;;;;24.50;16.73;;;16.30;99.90;;;;;;4999012;28;20068;-55
2023/06/17 05:40:52;;;;;;;24.85;16.13;;;16.30;99.90;;;;;;4996900;28;20048;-64
2023/06/17 05:43:18;;;;;;;24.67;16.05;;;16.30;99.90;;;;;;4964685;28;20049;-64
2023/06/17 05:45:44;;;;;;;24.63;14.90;;;16.30;99.90;;;;;;4957928;28;20042;-64
2023/06/17 05:48:10;;;;;;;26.48;15.90;;;16.40;99.90;;;;;;4963128;28;20931;-64
2023/06/17 05:50:36;;;;;;;23.15;14.95;;;16.40;99.90;;;;;;4978455;28;20046;-64
2023/06/17 05:53:02;;;;;;;23.85;14.35;;;16.40;99.90;;;;;;4983156;28;20080;-64
2023/06/17 05:55:28;;;;;;;24.52;14.02;;;16.40;99.90;;;;;;4985956;28;20044;-64
2023/06/17 05:57:54;;;;;;;18.67;13.40;;;16.40;99.90;;;;;;4960101;28;20041;-64
2023/06/17 06:00:20;;;;;;;21.48;13.40;;;16.50;99.90;;;;;;4969149;28;20036;-64
2023/06/17 06:02:46;;;;;;;22.10;13.82;;;16.50;99.90;;;;;;4952327;28;20041;-64
2023/06/17 06:05:12;;;;;;;25.13;14.02;;;16.50;99.90;;;;;;4988330;28;20068;-64
2023/06/17 06:07:38;;;;;;;21.05;13.43;;;16.50;99.90;;;;;;4966958;28;20215;-64
2023/06/17 06:10:07;;;;;;;22.73;14.50;;;16.50;99.90;;;;;;4967120;28;20128;-64
2023/06/17 06:12:33;;;;;;;22.05;14.38;;;16.60;99.90;;;;;;4966513;28;20049;-64
2023/06/17 06:14:58;;;;;;;21.50;13.70;;;16.60;99.90;;;;;;4980273;28;20056;-64
2023/06/17 06:17:24;;;;;;;18.60;13.80;;;16.60;99.90;;;;;;4982280;28;20048;-64
2023/06/17 06:19:51;;;;;;;24.73;15.05;;;16.70;99.90;;;;;;4982609;28;20034;-64
2023/06/17 06:22:17;;;;;;;25.40;16.23;;;16.70;99.90;;;;;;4985738;28;20046;-64
2023/06/17 06:24:43;;;;;;;24.15;16.85;;;16.70;99.90;;;;;;4984328;28;20136;-64
2023/06/17 06:27:09;;;;;;;27.15;16.85;;;16.80;99.90;;;;;;4971154;28;20409;-64
2023/06/17 06:29:35;;;;;;;30.17;16.98;;;16.80;99.90;;;;;;4986457;28;20225;-64
2023/06/17 06:32:02;;;;;;;25.30;16.10;;;16.90;99.90;;;;;;4976399;28;20084;-64
2023/06/17 06:34:28;;;;;;;24.75;16.63;;;16.90;99.90;;;;;;4985755;28;20045;-64
2023/06/17 06:36:58;;;;;;;27.45;17.88;;;17.00;99.90;;;;;;4968570;28;20042;-64
2023/06/17 06:39:25;;;;;;;22.85;15.90;;;17.10;99.90;;;;;;4980988;28;20045;-64
2023/06/17 06:41:51;;;;;;;23.58;14.80;;;17.10;99.90;;;;;;4936516;28;20041;-64
2023/06/17 06:44:17;;;;;;;19.20;14.60;;;17.20;99.90;;;;;;4984541;28;20072;-64
2023/06/17 06:46:45;;;;;;;26.48;15.18;;;17.30;99.90;;;;;;4972265;28;20041;-64
2023/06/17 06:49:11;;;;;;;19.92;14.15;;;17.30;99.90;;;;;;4971508;28;20041;-64
2023/06/17 06:51:37;;;;;;;24.80;15.73;;;17.50;99.90;;;;;;4986148;28;20052;-64
2023/06/17 06:54:03;;;;;;;20.85;13.13;;;17.50;99.90;;;;;;4983230;28;20495;-64
2023/06/17 06:56:29;;;;;;;25.80;15.10;;;17.60;99.90;;;;;;4986284;28;20588;-64
2023/06/17 06:58:59;;;;;;;21.05;13.07;;;17.70;99.90;;;;;;4986181;28;20371;-64
2023/06/17 07:01:28;;;;;;;21.92;14.82;;;17.70;99.90;;;;;;4953113;28;20045;-64
2023/06/17 07:03:54;;;;;;;25.38;14.95;;;17.80;99.90;;;;;;4984312;28;20048;-64
2023/06/17 07:06:20;;;;;;;20.95;13.30;;;17.90;99.90;;;;;;4966386;28;20486;-64
2023/06/17 07:08:46;;;;;;;23.00;13.60;;;17.90;99.90;;;;;;4978273;28;20060;-64
2023/06/17 07:11:12;;;;;;;19.98;12.35;;;18.00;99.90;;;;;;4979415;28;20050;-64
2023/06/17 07:13:37;;;;;;;22.73;13.00;;;18.00;99.90;;;;;;4977554;28;20410;-64
2023/06/17 07:16:04;;;;;;;19.83;12.63;;;18.10;99.90;;;;;;4991845;28;20045;-64
2023/06/17 07:18:30;;;;;;;20.58;12.05;;;18.20;99.90;;;;;;4993129;28;20046;-64
2023/06/17 07:20:56;;;;;;;21.27;12.25;;;18.30;99.90;;;;;;4979103;28;20509;-64
2023/06/17 07:23:23;;;;;;;19.15;13.45;;;18.40;99.90;;;;;;4991633;28;20061;-64
2023/06/17 07:25:49;;;;;;;18.42;12.50;;;18.40;99.90;;;;;;4989937;28;20057;-64
2023/06/17 07:28:15;;;;;;;20.27;12.32;;;18.50;99.90;;;;;;4993784;28;20050;-64
2023/06/17 07:30:41;;;;;;;21.38;12.88;;;18.50;99.90;;;;;;4997645;28;20083;-64
2023/06/17 07:33:07;;;;;;;15.32;10.98;;;18.60;99.90;;;;;;4991368;28;20077;-65
2023/06/17 07:35:33;;;;;;;19.30;12.02;;;18.60;99.90;;;;;;4980673;28;20077;-64
2023/06/17 07:37:58;;;;;;;21.13;11.77;;;18.70;99.90;;;;;;4990397;28;20386;-64
2023/06/17 07:40:24;;;;;;;15.65;11.18;;;18.80;99.90;;;;;;4969407;28;20049;-64
2023/06/17 07:42:50;;;;;;;18.48;11.10;;;19.00;99.90;;;;;;4984126;28;20041;-64
2023/06/17 07:45:16;;;;;;;20.08;12.10;;;19.10;99.90;;;;;;4983465;28;20071;-64
2023/06/17 07:47:42;;;;;;;20.90;11.43;;;19.10;99.90;;;;;;4984884;28;20461;-64
2023/06/17 07:50:08;;;;;;;15.90;10.45;;;19.10;99.90;;;;;;4985660;28;20057;-64
2023/06/17 07:52:35;;;;;;;16.35;9.93;;;19.10;99.90;;;;;;4983647;28;20510;-64
2023/06/17 07:55:05;;;;;;;17.02;10.45;;;19.20;99.90;;;;;;4986287;28;20103;-64
2023/06/17 07:57:30;;;;;;;15.23;10.18;;;19.30;99.90;;;;;;4984139;28;20406;-64
2023/06/17 07:59:57;;;;;;;20.73;11.30;;;19.50;99.90;;;;;;4973544;28;20046;-64
2023/06/17 08:02:23;;;;;;;19.23;11.93;;;19.70;99.90;;;;;;4984579;28;20513;-64
2023/06/17 08:04:49;;;;;;;15.70;11.10;;;19.90;99.90;;;;;;4977116;28;20140;-63
2023/06/17 08:07:15;;;;;;;17.30;10.20;;;20.10;99.90;;;;;;4980472;28;20060;-64
2023/06/17 08:09:41;;;;;;;16.95;10.63;;;20.30;99.90;;;;;;5000860;28;20115;-64
2023/06/17 08:12:07;;;;;;;19.77;10.95;;;20.40;99.90;;;;;;4971000;28;20511;-64
2023/06/17 08:14:33;;;;;;;16.52;11.95;;;20.50;99.90;;;;;;4986940;28;20060;-64
2023/06/17 08:16:59;;;;;;;17.90;10.00;;;20.60;99.90;;;;;;4966978;28;20049;-64
2023/06/17 08:19:25;;;;;;;16.48;10.73;;;20.60;99.90;;;;;;4987335;28;20045;-64
2023/06/17 08:21:51;;;;;;;16.48;9.63;;;20.60;99.90;;;;;;4988180;28;27048;-64
2023/06/17 08:24:18;;;;;;;19.48;11.10;;;20.70;99.90;;;;;;4968584;28;20410;-64
2023/06/17 08:26:45;;;;;;;19.35;9.90;;;20.80;99.90;;;;;;4988854;28;20057;-64
2023/06/17 08:29:13;;;;;;;17.35;10.07;;;20.90;99.90;;;;;;4973901;28;20472;-64
2023/06/17 08:31:42;;;;;;;20.45;10.88;;;21.00;99.90;;;;;;5011106;28;20045;-64
2023/06/17 08:34:08;;;;;;;16.50;9.55;;;21.10;99.90;;;;;;4981122;28;20044;-64
2023/06/17 08:36:34;;;;;;;16.88;10.38;;;21.20;99.90;;;;;;4975354;28;21107;-63
2023/06/17 08:39:00;;;;;;;16.45;10.50;;;21.40;99.90;;;;;;5004760;28;22013;-64
2023/06/17 08:41:27;;;;;;;16.00;9.23;;;21.40;99.90;;;;;;4997210;28;20073;-64
2023/06/17 08:44:00;;;;;;;17.10;9.23;;;21.50;99.90;;;;;;4977803;28;20068;-64
2023/06/17 08:46:27;;;;;;;14.52;8.98;;;21.60;99.90;;;;;;4992300;28;20163;-63
2023/06/17 08:48:52;;;;;;;16.60;10.07;;;21.80;99.90;;;;;;4988757;28;20046;-64
2023/06/17 08:51:19;;;;;;;19.60;9.10;;;22.00;99.90;;;;;;4991014;28;20552;-64
2023/06/17 08:53:46;;;;;;;20.70;10.10;;;22.10;99.90;;;;;;4992317;28;20061;-64
2023/06/17 08:56:13;;;;;;;16.27;9.73;;;22.10;99.90;;;;;;4993022;28;20049;-64
2023/06/17 08:58:39;;;;;;;14.32;9.50;;;22.20;99.90;;;;;;4990550;28;20604;-64
2023/06/17 09:01:08;;;;;;;13.73;9.00;;;22.30;99.90;;;;;;4991072;28;20119;-64
2023/06/17 09:03:38;;;;;;;14.63;9.13;;;22.40;99.90;;;;;;4988270;28;20042;-64
2023/06/17 09:06:21;;;;;;;16.23;9.50;;;22.30;99.90;;;;;;4995582;28;20052;-64
2023/06/17 09:08:52;;;;;;;14.15;9.32;;;22.40;99.90;;;;;;4990142;28;20081;-64
2023/06/17 09:11:25;;;;;;;17.08;9.95;;;22.50;99.90;;;;;;5005155;28;20438;-63
2023/06/17 09:13:56;;;;;;;14.63;9.13;;;22.60;99.90;;;;;;4996624;28;20520;-64
2023/06/17 09:16:29;;;;;;;15.27;8.10;;;22.70;99.90;;;;;;4978633;28;20120;-64
2023/06/17 09:18:58;;;;;;;15.23;9.30;;;22.90;99.90;;;;;;5000711;28;20032;-64
2023/06/17 09:21:26;;;;;;;14.88;9.35;;;23.00;99.90;;;;;;4997475;28;20673;-64
2023/06/17 09:23:57;;;;;;;16.92;9.60;;;23.10;99.90;;;;;;4998339;28;20045;-64
2023/06/17 09:26:29;;;;;;;12.48;8.63;;;23.20;99.90;;;;;;5002236;28;21019;-63
2023/06/17 09:29:03;;;;;;;21.35;9.55;;;23.30;99.90;;;;;;4983557;28;20135;-64
2023/06/17 09:31:33;;;;;;;14.45;9.88;;;23.40;99.90;;;;;;4997646;28;20046;-64
2023/06/17 09:34:03;;;;;;;12.85;8.65;;;23.60;99.90;;;;;;5010454;28;20048;-63
2023/06/17 09:36:29;;;;;;;13.85;8.68;;;23.60;99.60;;;;;;4989478;28;20114;-64
2023/06/17 09:38:55;;;;;;;13.18;8.68;;;23.70;99.40;;;;;;4967674;28;20037;-64
2023/06/17 09:41:23;;;;;;;16.08;9.55;;;23.80;99.30;;;;;;4988447;28;20048;-63
2023/06/17 09:43:53;;;;;;;11.35;9.05;;;23.90;98.80;;;;;;4991290;28;20591;-64
2023/06/17 09:46:35;;;;;;;16.63;9.70;;;24.10;98.90;;;;;;4993451;28;20465;-63
2023/06/17 09:49:09;;;;;;;19.15;10.52;;;24.20;98.90;;;;;;4973316;28;20052;-64
2023/06/17 09:51:38;;;;;;;13.80;9.55;;;24.40;98.50;;;;;;4986787;28;20589;-64
2023/06/17 09:54:05;;;;;;;16.77;9.13;;;24.50;98.50;;;;;;4976178;28;20505;-64
2023/06/17 09:56:31;;;;;;;12.95;8.50;;;24.70;98.50;;;;;;4987319;28;20104;-64
2023/06/17 09:58:58;;;;;;;15.80;9.18;;;24.90;98.20;;;;;;4984290;28;20041;-64
2023/06/17 10:01:30;;;;;;;15.43;9.55;;;25.10;97.50;;;;;;4990900;28;20099;-64
2023/06/17 10:04:00;;;;;;;13.73;9.15;;;25.20;97.10;;;;;;4993810;28;20044;-64
2023/06/17 10:06:34;;;;;;;14.48;9.43;;;25.30;96.70;;;;;;4976392;28;20057;-64
2023/06/17 10:09:05;;;;;;;11.57;8.80;;;25.40;96.80;;;;;;4995071;28;20056;-63
2023/06/17 10:11:33;;;;;;;15.93;9.50;;;25.60;96.20;;;;;;4976160;28;20033;-63
2023/06/17 10:14:14;;;;;;;15.45;9.18;;;25.60;96.30;;;;;;4991817;28;20048;-64
2023/06/17 10:16:47;;;;;;;13.10;8.70;;;25.70;95.80;;;;;;4964971;28;20528;-64
2023/06/17 10:19:17;;;;;;;13.45;8.63;;;25.80;95.30;;;;;;4987798;28;20041;-61
2023/06/17 10:21:46;;;;;;;13.88;8.98;;;26.00;94.90;;;;;;4988045;28;20041;-58
2023/06/17 10:24:13;;;;;;;14.63;8.73;;;26.20;94.30;;;;;;4988323;28;20116;-59
2023/06/17 10:26:39;;;;;;;13.30;8.25;;;26.30;93.90;;;;;;5001611;28;20052;-59
2023/06/17 10:29:07;;;;;;;15.95;8.80;;;26.50;93.70;;;;;;5002742;28;20060;-59
2023/06/17 10:31:40;;;;;;;15.02;8.40;;;26.70;93.20;;;;;;5008614;28;20041;-60
2023/06/17 10:34:36;;;;;;;16.70;9.20;;;26.80;93.20;;;;;;5011785;28;20618;-60
2023/06/17 10:37:01;;;;;;;13.02;8.68;;;26.90;92.50;;;;;;4990766;28;20057;-59
2023/06/17 10:39:27;;;;;;;15.38;9.23;;;27.00;92.00;;;;;;5012014;28;20052;-59
2023/06/17 10:41:55;;;;;;;16.23;8.55;;;27.20;91.40;;;;;;5012015;28;21167;-60
2023/06/17 10:44:33;;;;;;;15.48;8.50;;;27.30;90.70;;;;;;5005758;28;20042;-60
2023/06/17 10:46:59;;;;;;;16.60;9.02;;;27.40;91.00;;;;;;4968020;28;20041;-60
2023/06/17 10:49:35;;;;;;;13.50;8.40;;;27.40;90.50;;;;;;5003846;28;20049;-59
2023/06/17 10:52:03;;;;;;;14.55;8.93;;;27.50;89.40;;;;;;5003196;28;20037;-59
2023/06/17 10:54:30;;;;;;;12.80;8.10;;;27.40;88.80;;;;;;5001030;28;20048;-58
2023/06/17 10:56:56;;;;;;;15.35;8.38;;;27.60;89.00;;;;;;5002614;28;20049;-59
2023/06/17 10:59:30;;;;;;;11.68;7.72;;;27.70;87.50;;;;;;5003430;28;20053;-60
2023/06/17 11:02:06;;;;;;;13.00;8.48;;;27.70;85.70;;;;;;4985764;28;20158;-59
2023/06/17 11:04:34;;;;;;;13.20;7.65;;;27.70;86.60;;;;;;5005845;28;20541;-60
2023/06/17 11:07:02;;;;;;;13.10;7.80;;;27.90;85.90;;;;;;5007726;28;20044;-59
2023/06/17 11:09:29;;;;;;;11.63;7.95;;;28.00;84.60;;;;;;5004947;28;20160;-59
2023/06/17 11:11:56;;;;;;;12.10;7.32;;;28.10;83.40;;;;;;5007873;28;20519;-60
2023/06/17 11:14:27;;;;;;;15.57;7.93;;;28.20;82.40;;;;;;5010509;28;20088;-60
2023/06/17 11:16:53;;;;;;;14.20;6.80;;;28.30;82.60;;;;;;4995779;28;20385;-60
2023/06/17 11:19:18;;;;;;;13.85;7.50;;;28.40;81.50;;;;;;4993437;28;20046;-60
2023/06/17 11:21:44;;;;;;;12.73;7.35;;;28.50;80.00;;;;;;4995431;28;21093;-60
2023/06/17 11:24:11;;;;;;;13.40;7.05;;;28.50;79.00;;;;;;4981499;28;20059;-60
2023/06/17 11:26:37;;;;;;;13.65;7.70;;;28.50;78.40;;;;;;5004021;28;20054;-60
2023/06/17 11:29:06;;;;;;;13.55;6.38;;;28.70;78.00;;;;;;5010418;28;20396;-59
2023/06/17 11:31:40;;;;;;;14.40;6.90;;;28.80;78.10;;;;;;5002026;28;20080;-60
2023/06/17 11:34:09;;;;;;;10.48;6.35;;;28.90;76.60;;;;;;4985505;28;20095;-60
2023/06/17 11:36:37;;;;;;;14.93;6.43;;;29.00;76.00;;;;;;5008031;28;20631;-60
2023/06/17 11:39:04;;;;;;;11.40;6.35;;;29.10;75.30;;;;;;4989600;28;20045;-60
2023/06/17 11:41:31;;;;;;;11.77;6.75;;;29.10;73.90;;;;;;4990469;28;20056;-60
2023/06/17 11:43:57;;;;;;;12.30;6.82;;;29.10;73.80;;;;;;5000960;28;20388;-60
2023/06/17 11:46:24;;;;;;;10.98;6.80;;;29.10;73.30;;;;;;4988441;28;20045;-60
2023/06/17 11:48:50;;;;;;;9.68;6.63;;;28.90;73.60;;;;;;5004789;28;20046;-60
2023/06/17 11:51:17;;;;;;;10.90;6.45;;;28.90;74.90;;;;;;4991214;28;21118;-60
2023/06/17 11:53:49;;;;;;;12.68;6.32;;;29.00;74.70;;;;;;5007008;28;20394;-60
2023/06/17 11:56:21;;;;;;;8.80;5.90;;;29.20;75.00;;;;;;5004167;28;20040;-60
2023/06/17 11:58:51;;;;;;;12.00;6.30;;;29.50;74.70;;;;;;5008926;28;20116;-59
2023/06/17 12:01:16;;;;;;;12.85;6.85;;;29.80;73.80;;;;;;4989632;28;20083;-60
2023/06/17 12:03:48;;;;;;;10.60;6.97;;;30.00;71.60;;;;;;5014859;28;20537;-60
2023/06/17 12:06:21;;;;;;;10.75;6.80;;;29.90;70.90;;;;;;5015758;28;20087;-60
2023/06/17 12:08:58;;;;;;;11.30;6.75;;;29.80;70.40;;;;;;5011850;28;20124;-60
2023/06/17 12:11:28;;;;;;;12.07;6.72;;;29.80;70.20;;;;;;4993359;28;20057;-60
2023/06/17 12:13:57;;;;;;;12.32;6.60;;;29.80;71.10;;;;;;5012778;28;20037;-60
2023/06/17 12:16:32;;;;;;;12.95;6.90;;;29.90;71.40;;;;;;5011756;28;20154;-59
2023/06/17 12:18:59;;;;;;;10.43;6.63;;;30.00;69.80;;;;;;5011490;28;20699;-60
2023/06/17 12:21:25;;;;;;;14.07;6.93;;;29.90;70.40;;;;;;4982676;28;20049;-59
2023/06/17 12:23:53;;;;;;;14.48;7.30;;;29.90;70.00;;;;;;5004194;28;20538;-60
2023/06/17 12:26:25;;;;;;;16.00;6.53;;;29.80;71.00;;;;;;5011132;28;20052;-60
2023/06/17 12:28:52;;;;;;;11.10;7.00;;;29.80;69.90;;;;;;5011835;28;20682;-60
2023/06/17 12:31:19;;;;;;;10.68;6.70;;;29.90;70.30;;;;;;4994895;28;20041;-59
2023/06/17 12:33:48;;;;;;;12.45;7.18;;;29.90;70.50;;;;;;4995825;28;20045;-60